createdAt,value
2022-08-03T00:01:25.359Z,100852.38
2022-08-03T00:03:53.339Z,100853.09
2022-08-03T00:06:19.888Z,100852.78
2022-08-03T00:08:46.518Z,100842.31
2022-08-03T00:11:13.137Z,100836.50
2022-08-03T00:13:39.743Z,100849.97
2022-08-03T00:16:06.355Z,100835.84
2022-08-03T00:18:32.923Z,100842.00
2022-08-03T00:21:00.828Z,100845.22
2022-08-03T00:23:31.748Z,100827.47
2022-08-03T00:26:13.994Z,100834.13
2022-08-03T00:28:40.522Z,100840.00
2022-08-03T00:31:07.158Z,100841.38
2022-08-03T00:33:57.942Z,100838.22
2022-08-03T00:36:22.206Z,100840.41
2022-08-03T00:38:48.810Z,100837.44
2022-08-03T00:41:15.576Z,100835.94
2022-08-03T00:43:42.296Z,100831.13
2022-08-03T00:46:09.143Z,100817.34
2022-08-03T00:48:35.714Z,100829.69
2022-08-03T00:51:02.681Z,100832.91
2022-08-03T00:53:31.121Z,100827.06
2022-08-03T00:55:58.383Z,100836.28
2022-08-03T00:58:24.963Z,100840.47
2022-08-03T01:00:51.787Z,100833.81
2022-08-03T01:03:18.397Z,100828.78
2022-08-03T01:05:52.934Z,100812.19
2022-08-03T01:08:28.202Z,100824.78
2022-08-03T01:11:06.536Z,100813.13
2022-08-03T01:14:01.365Z,100823.16
2022-08-03T01:16:35.973Z,100829.16
2022-08-03T01:19:31.164Z,100832.34
2022-08-03T01:22:10.751Z,100825.88
2022-08-03T01:24:45.536Z,100807.91
2022-08-03T01:27:18.995Z,100831.06
2022-08-03T01:30:02.208Z,100810.25
2022-08-03T01:32:58.291Z,100816.25
2022-08-03T01:35:29.506Z,100820.94
2022-08-03T01:38:02.341Z,100822.97
2022-08-03T01:40:31.182Z,100829.47
2022-08-03T01:42:59.845Z,100820.16
2022-08-03T01:45:30.109Z,100829.31
2022-08-03T01:48:02.723Z,100819.16
2022-08-03T01:50:31.633Z,100824.66
2022-08-03T01:52:59.658Z,100818.50
2022-08-03T01:55:26.970Z,100811.69
2022-08-03T01:58:04.665Z,100818.16
2022-08-03T02:00:36.463Z,100826.69
2022-08-03T02:03:06.000Z,100820.22
2022-08-03T02:05:33.769Z,100804.53
2022-08-03T02:08:02.013Z,100815.88
2022-08-03T02:10:35.193Z,100798.91
2022-08-03T02:13:05.122Z,100818.53
2022-08-03T02:15:33.493Z,100817.22
2022-08-03T02:18:04.383Z,100823.41
2022-08-03T02:20:32.541Z,100822.06
2022-08-03T02:22:59.424Z,100818.22
2022-08-03T02:25:26.218Z,100816.53
2022-08-03T02:27:56.352Z,100817.22
2022-08-03T02:30:29.747Z,100797.72
2022-08-03T02:32:59.104Z,100824.69
2022-08-03T02:35:29.399Z,100820.56
2022-08-03T02:38:00.920Z,100821.88
2022-08-03T02:40:28.265Z,100817.38
2022-08-03T02:42:59.499Z,100816.72
2022-08-03T02:45:28.635Z,100814.03
2022-08-03T02:47:59.627Z,100813.22
2022-08-03T02:50:29.356Z,100815.19
2022-08-03T02:52:58.570Z,100810.69
2022-08-03T02:55:27.244Z,100804.53
2022-08-03T02:57:55.460Z,100804.53
2022-08-03T03:00:27.554Z,100808.03
2022-08-03T03:02:57.401Z,100801.03
2022-08-03T03:05:52.906Z,100808.03
2022-08-03T03:08:17.727Z,100808.19
2022-08-03T03:10:46.411Z,100767.72
2022-08-03T03:13:15.012Z,100807.88
2022-08-03T03:15:43.278Z,100811.38
2022-08-03T03:18:11.449Z,100806.03
2022-08-03T03:20:39.659Z,100802.03
2022-08-03T03:23:08.380Z,100788.72
2022-08-03T03:25:37.240Z,100804.69
2022-08-03T03:28:06.344Z,100801.22
2022-08-03T03:30:34.575Z,100805.84
2022-08-03T03:33:01.230Z,100807.00
2022-08-03T03:35:28.221Z,100803.53
2022-08-03T03:37:55.150Z,100786.00
2022-08-03T03:40:22.098Z,100807.66
2022-08-03T03:42:50.819Z,100809.19
2022-08-03T03:45:18.595Z,100818.47
2022-08-03T03:47:45.400Z,100823.97
2022-08-03T03:50:12.494Z,100816.00
2022-08-03T03:52:39.071Z,100817.97
2022-08-03T03:55:06.978Z,100808.81
2022-08-03T03:57:34.594Z,100813.00
2022-08-03T04:00:03.198Z,100807.81
2022-08-03T04:02:31.137Z,100807.97
2022-08-03T04:04:57.988Z,100816.47
2022-08-03T04:07:26.620Z,100797.81
2022-08-03T04:09:54.876Z,100814.81
2022-08-03T04:12:29.541Z,100812.81
2022-08-03T04:14:58.918Z,100809.31
2022-08-03T04:17:28.232Z,100780.34
2022-08-03T04:19:57.138Z,100781.00
2022-08-03T04:22:27.606Z,100807.16
2022-08-03T04:24:58.760Z,100728.97
2022-08-03T04:27:28.787Z,100810.66
2022-08-03T04:29:57.540Z,100806.66
2022-08-03T04:32:26.233Z,100813.34
2022-08-03T04:34:54.536Z,100809.53
2022-08-03T04:37:26.665Z,100822.03
2022-08-03T04:39:56.962Z,100820.72
2022-08-03T04:42:25.682Z,100819.00
2022-08-03T04:45:00.455Z,100821.47
2022-08-03T04:47:28.343Z,100825.28
2022-08-03T04:49:56.598Z,100828.22
2022-08-03T04:52:23.399Z,100824.78
2022-08-03T04:54:51.032Z,100836.13
2022-08-03T04:57:22.301Z,100827.28
2022-08-03T04:59:50.410Z,100833.28
2022-08-03T05:02:17.296Z,100828.13
2022-08-03T05:04:44.221Z,100828.44
2022-08-03T05:07:12.600Z,100794.78
2022-08-03T05:09:50.783Z,100825.06
2022-08-03T05:12:24.223Z,100832.53
2022-08-03T05:14:50.933Z,100731.88
2022-08-03T05:17:17.558Z,100831.38
2022-08-03T05:19:44.260Z,100833.22
2022-08-03T05:22:12.267Z,100838.38
2022-08-03T05:24:38.818Z,100840.84
2022-08-03T05:27:05.507Z,100836.16
2022-08-03T05:29:32.057Z,100767.59
2022-08-03T05:31:58.705Z,100837.81
2022-08-03T05:34:25.629Z,100838.72
2022-08-03T05:36:52.595Z,100837.19
2022-08-03T05:39:20.550Z,100836.50
2022-08-03T05:41:47.228Z,100788.56
2022-08-03T05:44:13.967Z,100801.31
2022-08-03T05:46:40.612Z,100812.91
2022-08-03T05:49:07.243Z,100832.16
2022-08-03T05:51:34.307Z,100826.63
2022-08-03T05:54:00.993Z,100836.91
2022-08-03T05:56:29.095Z,100840.56
2022-08-03T05:58:55.967Z,100822.47
2022-08-03T06:01:22.639Z,100847.25
2022-08-03T06:03:49.982Z,100827.69
2022-08-03T06:06:17.350Z,100845.59
2022-08-03T06:08:45.585Z,100820.78
2022-08-03T06:11:12.849Z,100832.69
2022-08-03T06:13:41.666Z,100830.41
2022-08-03T06:16:08.624Z,100832.78
2022-08-03T06:18:35.290Z,100819.03
2022-08-03T06:21:15.208Z,100838.25
2022-08-03T06:23:54.141Z,100839.03
2022-08-03T06:26:26.951Z,100830.34
2022-08-03T06:28:55.586Z,100822.47
2022-08-03T06:31:24.336Z,100834.25
2022-08-03T06:34:33.905Z,100838.09
2022-08-03T06:36:38.011Z,100828.53
2022-08-03T06:39:04.997Z,100835.53
2022-08-03T06:41:31.630Z,100833.34
2022-08-03T06:44:09.233Z,100835.75
2022-08-03T06:46:37.085Z,100829.03
2022-08-03T06:49:03.733Z,100811.44
2022-08-03T06:52:04.357Z,100821.69
2022-08-03T06:54:17.158Z,100837.34
2022-08-03T06:56:43.804Z,100840.13
2022-08-03T07:00:10.527Z,100756.44
2022-08-03T07:01:58.437Z,100844.63
2022-08-03T07:04:25.185Z,100828.31
2022-08-03T07:06:51.826Z,100843.69
2022-08-03T07:09:18.433Z,100842.75
2022-08-03T07:11:45.075Z,100839.47
2022-08-03T07:14:12.965Z,100838.66
2022-08-03T07:16:39.529Z,100843.63
2022-08-03T07:19:06.063Z,100839.28
2022-08-03T07:21:32.733Z,100841.63
2022-08-03T07:23:59.319Z,100849.25
2022-08-03T07:26:25.860Z,100835.13
2022-08-03T07:28:52.394Z,100837.97
2022-08-03T07:31:20.503Z,100838.56
2022-08-03T07:33:47.036Z,100801.06
2022-08-03T07:36:13.679Z,100833.47
2022-08-03T07:38:40.250Z,100831.69
2022-08-03T07:41:06.894Z,100835.38
2022-08-03T07:43:33.451Z,100834.28
2022-08-03T07:46:00.161Z,100802.94
2022-08-03T07:48:28.126Z,100839.19
2022-08-03T07:50:54.758Z,100836.16
2022-08-03T07:53:21.339Z,100814.78
2022-08-03T07:55:47.959Z,100837.16
2022-08-03T07:58:14.554Z,100801.81
2022-08-03T08:00:41.897Z,100825.38
2022-08-03T08:03:08.659Z,100798.63
2022-08-03T08:05:37.221Z,100826.19
2022-08-03T08:08:04.953Z,100831.47
2022-08-03T08:10:31.801Z,100780.50
2022-08-03T08:12:58.946Z,100818.47
2022-08-03T08:15:25.849Z,100825.56
2022-08-03T08:17:55.323Z,100817.13
2022-08-03T08:20:28.160Z,100821.09
2022-08-03T08:23:01.261Z,100816.66
2022-08-03T08:25:29.454Z,100802.19
2022-08-03T08:28:22.541Z,100800.88
2022-08-03T08:30:43.185Z,100810.31
2022-08-03T08:33:22.418Z,100811.41
2022-08-03T08:35:50.935Z,100810.00
2022-08-03T08:38:18.991Z,100805.47
2022-08-03T08:40:46.120Z,100802.50
2022-08-03T08:43:12.717Z,100804.59
2022-08-03T08:45:40.876Z,100805.78
2022-08-03T08:48:10.531Z,100802.41
2022-08-03T08:50:38.663Z,100808.97
2022-08-03T08:53:17.352Z,100807.84
2022-08-03T08:55:59.206Z,100795.03
2022-08-03T08:58:29.850Z,100804.63
2022-08-03T09:00:57.147Z,100803.22
2022-08-03T09:03:30.182Z,100802.50
2022-08-03T09:05:59.609Z,100801.41
2022-08-03T09:08:26.211Z,100791.38
2022-08-03T09:10:54.336Z,100780.44
2022-08-03T09:13:21.180Z,100780.88
2022-08-03T09:15:57.240Z,100802.97
2022-08-03T09:18:32.202Z,100787.22
2022-08-03T09:21:30.047Z,100804.31
2022-08-03T09:24:03.412Z,100798.69
2022-08-03T09:26:34.343Z,100796.91
2022-08-03T09:29:09.286Z,100797.13
2022-08-03T09:31:39.424Z,100786.66
2022-08-03T09:34:11.819Z,100788.69
2022-08-03T09:36:40.895Z,100795.38
2022-08-03T09:39:09.808Z,100797.84
2022-08-03T09:41:39.528Z,100796.38
2022-08-03T09:44:06.509Z,100792.91
2022-08-03T09:46:50.088Z,100788.94
2022-08-03T09:49:17.308Z,100784.72
2022-08-03T09:52:32.530Z,100794.03
2022-08-03T09:54:32.415Z,100786.09
2022-08-03T09:57:00.816Z,100786.59
2022-08-03T09:59:28.857Z,100788.16
2022-08-03T10:01:56.433Z,100787.06
2022-08-03T10:04:23.682Z,100787.69
2022-08-03T10:07:04.743Z,100794.84
2022-08-03T10:09:31.588Z,100787.06
2022-08-03T10:12:06.647Z,100792.13
2022-08-03T10:14:33.932Z,100794.94
2022-08-03T10:17:00.526Z,100787.50
2022-08-03T10:19:27.220Z,100785.13
2022-08-03T10:21:55.902Z,100794.78
2022-08-03T10:24:26.005Z,100780.50
2022-08-03T10:26:56.912Z,100778.63
2022-08-03T10:29:28.666Z,100776.84
2022-08-03T10:31:59.025Z,100742.69
2022-08-03T10:34:28.902Z,100755.28
2022-08-03T10:37:00.000Z,100766.19
2022-08-03T10:39:29.851Z,100767.09
2022-08-03T10:41:57.790Z,100737.84
2022-08-03T10:44:29.469Z,100753.44
2022-08-03T10:46:56.859Z,100727.75
2022-08-03T10:49:33.939Z,100740.97
2022-08-03T10:52:02.778Z,100740.69
2022-08-03T10:54:41.478Z,100735.53
2022-08-03T10:57:48.858Z,100747.84
2022-08-03T11:00:18.923Z,100735.00
2022-08-03T11:03:15.632Z,100727.59
2022-08-03T11:05:43.615Z,100722.19
2022-08-03T11:08:25.150Z,100729.25
2022-08-03T11:10:53.231Z,100716.13
2022-08-03T11:13:21.554Z,100721.63
2022-08-03T11:15:53.305Z,100726.53
2022-08-03T11:18:27.556Z,100729.81
2022-08-03T11:20:56.186Z,100726.81
2022-08-03T11:24:04.630Z,100719.69
2022-08-03T11:26:28.723Z,100725.38
2022-08-03T11:29:27.837Z,100718.53
2022-08-03T11:31:55.950Z,100728.63
2022-08-03T11:34:22.635Z,100720.41
2022-08-03T11:37:27.536Z,100718.53
2022-08-03T11:39:56.944Z,100728.13
2022-08-03T11:42:40.140Z,100724.50
2022-08-03T11:45:08.997Z,100725.78
2022-08-03T11:47:50.638Z,100707.69
2022-08-03T11:50:18.738Z,100690.75
2022-08-03T11:52:45.419Z,100717.75
2022-08-03T11:55:15.576Z,100695.59
2022-08-03T11:59:15.255Z,100711.28
2022-08-03T12:00:30.902Z,100704.38
2022-08-03T12:03:04.527Z,100706.59
2022-08-03T12:05:51.138Z,100714.75
2022-08-03T12:08:29.844Z,100717.63
2022-08-03T12:10:58.276Z,100711.06
2022-08-03T12:14:43.764Z,100708.25
2022-08-03T12:16:18.233Z,100702.56
2022-08-03T12:18:46.285Z,100709.53
2022-08-03T12:21:12.932Z,100705.81
2022-08-03T12:23:39.683Z,100706.44
2022-08-03T12:26:08.061Z,100694.66
2022-08-03T12:28:37.616Z,100694.34
2022-08-03T12:31:06.663Z,100686.09
2022-08-03T12:33:59.035Z,100691.25
2022-08-03T12:36:26.287Z,100691.19
2022-08-03T12:38:56.025Z,100684.66
2022-08-03T12:41:29.962Z,100680.59
2022-08-03T12:43:56.840Z,100682.75
2022-08-03T12:46:30.645Z,100681.50
2022-08-03T12:49:05.475Z,100694.19
2022-08-03T12:51:35.047Z,100687.59
2022-08-03T12:54:02.089Z,100682.94
2022-08-03T12:56:28.917Z,100683.44
2022-08-03T12:58:55.966Z,100675.13
2022-08-03T13:01:22.872Z,100693.00
2022-08-03T13:03:52.974Z,100662.03
2022-08-03T13:06:23.549Z,100685.34
2022-08-03T13:09:01.097Z,100686.88
2022-08-03T13:11:43.425Z,100685.19
2022-08-03T13:14:20.038Z,100687.00
2022-08-03T13:16:48.018Z,100647.31
2022-08-03T13:19:16.126Z,100649.63
2022-08-03T13:22:03.601Z,100654.78
2022-08-03T13:24:32.402Z,100673.00
2022-08-03T13:26:59.079Z,100662.44
2022-08-03T13:29:25.877Z,100650.13
2022-08-03T13:31:52.860Z,100650.22
2022-08-03T13:34:23.433Z,100665.66
2022-08-03T13:37:08.503Z,100669.78
2022-08-03T13:39:58.054Z,100652.16
2022-08-03T13:42:23.134Z,100639.56
2022-08-03T13:44:49.761Z,100643.59
2022-08-03T13:47:16.602Z,100622.94
2022-08-03T13:49:54.267Z,100638.81
2022-08-03T13:52:31.727Z,100609.22
2022-08-03T13:54:58.464Z,100632.75
2022-08-03T13:58:03.025Z,100632.47
2022-08-03T14:00:13.031Z,100633.41
2022-08-03T14:02:53.009Z,100621.38
2022-08-03T14:05:19.661Z,100625.81
2022-08-03T14:07:47.676Z,100623.63
2022-08-03T14:10:14.297Z,100620.78
2022-08-03T14:12:40.950Z,100620.16
2022-08-03T14:15:08.690Z,100610.63
2022-08-03T14:17:49.735Z,100614.38
2022-08-03T14:20:37.126Z,100609.84
2022-08-03T14:23:04.938Z,100606.19
2022-08-03T14:25:43.180Z,100612.72
2022-08-03T14:28:11.782Z,100609.59
2022-08-03T14:30:38.439Z,100600.41
2022-08-03T14:33:05.084Z,100603.19
2022-08-03T14:35:31.631Z,100597.91
2022-08-03T14:37:58.615Z,100600.09
2022-08-03T14:40:26.542Z,100592.59
2022-08-03T14:42:53.261Z,100590.63
2022-08-03T14:45:20.751Z,100588.66
2022-08-03T14:50:32.923Z,100586.09
2022-08-03T14:50:42.963Z,100582.53
2022-08-03T14:53:12.458Z,100584.97
2022-08-03T14:55:49.373Z,100578.63
2022-08-03T14:58:20.806Z,100549.03
2022-08-03T15:00:49.394Z,100566.72
2022-08-03T15:03:16.920Z,100562.28
2022-08-03T15:05:44.070Z,100552.53
2022-08-03T15:08:10.682Z,100565.66
2022-08-03T15:10:40.659Z,100557.88
2022-08-03T15:13:13.503Z,100550.25
2022-08-03T15:15:40.728Z,100562.19
2022-08-03T15:18:07.791Z,100555.66
2022-08-03T15:20:49.906Z,100545.00
2022-08-03T15:23:18.095Z,100552.69
2022-08-03T15:26:06.447Z,100543.75
2022-08-03T15:28:33.971Z,100541.03
2022-08-03T15:31:00.856Z,100520.31
2022-08-03T15:33:28.049Z,100527.53
2022-08-03T15:35:54.831Z,100540.22
2022-08-03T15:38:21.564Z,100537.91
2022-08-03T15:40:48.207Z,100540.06
2022-08-03T15:43:14.858Z,100527.88
2022-08-03T15:45:42.947Z,100530.81
2022-08-03T15:48:09.553Z,100531.47
2022-08-03T15:50:36.154Z,100523.06
2022-08-03T15:53:02.994Z,100518.19
2022-08-03T15:55:29.715Z,100521.56
2022-08-03T15:59:09.397Z,100524.25
2022-08-03T16:00:44.767Z,100518.38
2022-08-03T16:03:11.443Z,100515.44
2022-08-03T16:05:38.138Z,100507.84
2022-08-03T16:08:07.081Z,100512.66
2022-08-03T16:10:36.998Z,100506.56
2022-08-03T16:13:03.620Z,100515.47
2022-08-03T16:15:30.331Z,100517.53
2022-08-03T16:17:58.358Z,100513.38
2022-08-03T16:20:29.242Z,100512.19
2022-08-03T16:23:01.557Z,100505.19
2022-08-03T16:25:35.829Z,100488.97
2022-08-03T16:28:07.737Z,100506.06
2022-08-03T16:30:40.071Z,100504.84
2022-08-03T16:33:08.367Z,100507.16
2022-08-03T16:35:35.104Z,100503.78
2022-08-03T16:38:04.366Z,100494.00
2022-08-03T16:40:33.487Z,100495.09
2022-08-03T16:43:17.815Z,100495.00
2022-08-03T16:45:45.616Z,100505.47
2022-08-03T16:48:14.227Z,100498.34
2022-08-03T16:50:40.881Z,100476.25
2022-08-03T16:53:09.835Z,100494.28
2022-08-03T16:55:43.368Z,100493.59
2022-08-03T16:58:19.090Z,100495.09
2022-08-03T17:01:00.990Z,100496.16
2022-08-03T17:03:57.436Z,100496.25
2022-08-03T17:06:26.546Z,100491.41
2022-08-03T17:09:01.872Z,100497.22
2022-08-03T17:11:30.035Z,100488.72
2022-08-03T17:14:00.174Z,100500.91
2022-08-03T17:16:27.186Z,100493.72
2022-08-03T17:18:58.462Z,100491.41
2022-08-03T17:21:31.093Z,100493.44
2022-08-03T17:24:12.270Z,100498.59
2022-08-03T17:26:43.336Z,100484.38
2022-08-03T17:29:13.169Z,100494.28
2022-08-03T17:31:48.690Z,100501.94
2022-08-03T17:34:18.887Z,100497.41
2022-08-03T17:37:04.213Z,100477.75
2022-08-03T17:39:57.177Z,100500.53
2022-08-03T17:42:30.183Z,100498.44
2022-08-03T17:45:02.414Z,100489.31
2022-08-03T17:47:41.935Z,100471.16
2022-08-03T17:50:25.230Z,100501.41
2022-08-03T17:53:07.682Z,100500.31
2022-08-03T17:55:57.227Z,100494.28
2022-08-03T17:58:52.565Z,100496.97
2022-08-03T18:02:00.884Z,100499.03
2022-08-03T18:04:12.360Z,100502.47
2022-08-03T18:06:55.833Z,100495.59
2022-08-03T18:10:03.353Z,100496.53
2022-08-03T18:12:18.584Z,100484.66
2022-08-03T18:14:59.205Z,100484.72
2022-08-03T18:17:55.024Z,100480.75
2022-08-03T18:20:31.055Z,100499.06
2022-08-03T18:23:04.631Z,100480.47
2022-08-03T18:25:45.669Z,100494.38
2022-08-03T18:28:18.682Z,100495.47
2022-08-03T18:30:54.194Z,100484.41
2022-08-03T18:34:19.021Z,100490.25
2022-08-03T18:36:10.375Z,100485.56
2022-08-03T18:38:40.404Z,100491.38
2022-08-03T18:41:15.694Z,100488.03
2022-08-03T18:43:47.286Z,100468.31
2022-08-03T18:46:26.477Z,100495.34
2022-08-03T18:49:00.154Z,100504.16
2022-08-03T18:51:43.260Z,100497.34
2022-08-03T18:57:12.416Z,100490.78
2022-08-03T18:59:52.209Z,100499.66
2022-08-03T19:02:28.645Z,100502.75
2022-08-03T19:05:04.623Z,100502.59
2022-08-03T19:07:36.153Z,100467.97
2022-08-03T19:10:06.934Z,100508.34
2022-08-03T19:12:39.854Z,100507.19
2022-08-03T19:15:12.596Z,100492.69
2022-08-03T19:17:41.307Z,100509.25
2022-08-03T19:20:09.165Z,100509.13
2022-08-03T19:22:36.852Z,100516.34
2022-08-03T19:25:06.448Z,100521.72
2022-08-03T19:27:39.787Z,100519.41
2022-08-03T19:30:21.864Z,100528.03
2022-08-03T19:32:54.220Z,100505.75
2022-08-03T19:35:52.007Z,100525.28
2022-08-03T19:38:09.970Z,100526.97
2022-08-03T19:40:42.146Z,100521.84
2022-08-03T19:43:11.554Z,100521.13
2022-08-03T19:46:05.091Z,100514.38
2022-08-03T19:48:34.213Z,100525.69
2022-08-03T19:51:02.682Z,100531.16
2022-08-03T19:53:44.859Z,100536.63
2022-08-03T19:56:15.843Z,100504.94
2022-08-03T19:58:42.585Z,100531.00
2022-08-03T20:01:19.163Z,100535.66
2022-08-03T20:03:48.879Z,100525.72
2022-08-03T20:06:16.871Z,100508.88
2022-08-03T20:08:44.442Z,100520.63
2022-08-03T20:11:12.799Z,100478.00
2022-08-03T20:13:44.056Z,100517.88
2022-08-03T20:16:15.163Z,100496.88
2022-08-03T20:18:42.675Z,100527.25
2022-08-03T20:21:14.755Z,100520.00
2022-08-03T20:23:58.077Z,100499.72
2022-08-03T20:26:31.494Z,100520.31
2022-08-03T20:29:09.157Z,100502.81
2022-08-03T20:31:36.991Z,100522.81
2022-08-03T20:34:03.927Z,100519.41
2022-08-03T20:36:30.572Z,100523.78
2022-08-03T20:38:58.185Z,100547.44
2022-08-03T20:41:25.361Z,100544.50
2022-08-03T20:43:53.497Z,100525.09
2022-08-03T20:46:32.745Z,100538.84
2022-08-03T20:49:06.544Z,100546.44
2022-08-03T20:51:49.698Z,100544.91
2022-08-03T20:54:29.287Z,100550.16
2022-08-03T20:56:57.635Z,100528.59
2022-08-03T20:59:26.850Z,100534.47
2022-08-03T21:01:53.646Z,100545.91
2022-08-03T21:04:21.960Z,100542.25
2022-08-03T21:06:54.559Z,100551.53
2022-08-03T21:09:33.313Z,100539.72
2022-08-03T21:12:12.086Z,100537.44
2022-08-03T21:13:00.958Z,100502.28
2022-08-03T21:14:51.881Z,100544.72
2022-08-03T21:17:39.139Z,100542.78
2022-08-03T21:20:09.530Z,100534.47
2022-08-03T21:22:37.783Z,100535.53
2022-08-03T21:25:07.417Z,100540.16
2022-08-03T21:27:35.432Z,100532.72
2022-08-03T21:30:07.531Z,100532.56
2022-08-03T21:32:34.361Z,100537.19
2022-08-03T21:35:01.506Z,100533.38
2022-08-03T21:37:28.833Z,100538.63
2022-08-03T21:39:56.018Z,100527.75
2022-08-03T21:42:23.458Z,100528.84
2022-08-03T21:44:50.924Z,100533.25
2022-08-03T21:47:20.838Z,100523.97
2022-08-03T21:50:08.534Z,100524.25
2022-08-03T21:52:41.268Z,100524.47
2022-08-03T21:55:08.697Z,100527.00
2022-08-03T21:57:51.390Z,100529.56
2022-08-03T22:00:20.438Z,100525.47
2022-08-03T22:02:53.174Z,100531.72
2022-08-03T22:05:28.134Z,100531.59
2022-08-03T22:08:10.750Z,100529.19
2022-08-03T22:10:37.859Z,100522.19
2022-08-03T22:13:04.707Z,100508.19
2022-08-03T22:15:32.719Z,100528.03
2022-08-03T22:18:01.257Z,100524.56
2022-08-03T22:20:27.791Z,100531.03
2022-08-03T22:22:59.796Z,100531.69
2022-08-03T22:25:28.379Z,100529.22
2022-08-03T22:27:55.413Z,100529.25
2022-08-03T22:30:22.812Z,100516.88
2022-08-03T22:32:51.876Z,100502.44
2022-08-03T22:35:24.097Z,100444.81
2022-08-03T22:37:54.256Z,100535.34
2022-08-03T22:40:21.350Z,100516.16
2022-08-03T22:42:48.681Z,100533.69
2022-08-03T22:46:07.542Z,100524.41
2022-08-03T22:48:07.262Z,100528.97
2022-08-03T22:50:35.804Z,100511.63
2022-08-03T22:53:03.191Z,100528.78
2022-08-03T22:55:29.971Z,100522.56
2022-08-03T22:57:56.728Z,100526.09
2022-08-03T23:00:24.214Z,100511.44
2022-08-03T23:02:53.283Z,100527.13
2022-08-03T23:06:01.277Z,100523.41
2022-08-03T23:08:14.401Z,100524.66
2022-08-03T23:10:46.798Z,100485.78
2022-08-03T23:13:16.204Z,100523.19
2022-08-03T23:15:47.297Z,100525.69
2022-08-03T23:18:15.639Z,100519.09
2022-08-03T23:20:42.602Z,100499.81
2022-08-03T23:23:14.282Z,100515.91
2022-08-03T23:25:47.272Z,100525.22
2022-08-03T23:28:15.029Z,100516.34
2022-08-03T23:30:42.704Z,100526.03
2022-08-03T23:33:12.304Z,100521.50
2022-08-03T23:36:29.595Z,100521.66
2022-08-03T23:38:29.814Z,100526.19
2022-08-03T23:40:58.753Z,100510.88
2022-08-03T23:43:51.686Z,100521.41
2022-08-03T23:46:14.439Z,100519.34
2022-08-03T23:48:44.910Z,100516.66
2022-08-03T23:51:23.439Z,100519.94
2022-08-03T23:54:01.888Z,100521.38
2022-08-03T23:56:41.299Z,100519.31
2022-08-03T23:59:21.755Z,100505.34
